Terminal Aerodrome Forecast
Issued by NWS

Home | Current Version | Previous Version | Text Only | Print | Product List | Glossary On
Versions: 1 2 3 4 5 6 7 8 9 10 11 12 13
144
FTUS45 KVEF 220520
TAFBIH
TAF
KBIH 220520Z 2206/2306 16011KT P6SM FEW150
     FM220700 33006KT P6SM SKC
     FM221800 17012G18KT P6SM SKC=

USA.gov is the U.S. government's official web portal to all federal, state and local government web resources and services.